OOCL Nagoya — VRFX8 — position and weather

sailwx.info

Track history (hours):
 
Tides and Currents Weather Stations Pressure Air Temp Water Temp Dewpoint Dewpoint Depression Visibility Wind Speed Wind Dir Waves Ship Positions

OOCL Nagoya

Last reported at 2015-Apr-02 02:30 UTC. Time now 2015-Apr-02 03:14 UTC.
Position N 34°39' E 135°15'.

Length 261 m; draft 9.9 m.

Type: Cargo ship. MMSI: 477627900.

Date/timePositionNaut miles runAvg speedWind from/ knotsBaromVisibWave heightAir tempDewpointWater temp
2015-Apr-02 02:30N 34°39' E 135°15'0 0.0
2015-Apr-02 01:30N 34°39' E 135°15'0 0.0
2015-Apr-02 00:18N 34°39' E 135°15'0 0.0
2015-Apr-01 23:30N 34°39' E 135°15'0 0.1
2015-Apr-01 22:33N 34°39' E 135°15'6 6.2
2015-Apr-01 21:33N 34°33' E 135°14'1716.8
2015-Apr-01 20:34N 34°20' E 135°02'1312.9
2015-Apr-01 19:34N 34°07' E 134°59'1515.1
2015-Apr-01 18:33N 33°52' E 134°58'228 5.2
2015-Mar-30 22:32N 34°53' E 139°24'1818.8
2015-Mar-30 21:33N 35°03' E 139°43'1514.6
2015-Mar-30 20:33N 35°17' E 139°45'1312.6
2015-Mar-30 19:34N 35°29' E 139°51'8 7.5
2015-Mar-30 18:31N 35°36' E 139°47'0 0.0
2015-Mar-30 17:31N 35°36' E 139°47'0 0.0
2015-Mar-30 16:31N 35°36' E 139°47'0 0.0
2015-Mar-30 15:31N 35°36' E 139°47'0 0.0
2015-Mar-30 14:31N 35°36' E 139°47'0 0.0
2015-Mar-30 13:28N 35°36' E 139°47'0 0.0
2015-Mar-30 12:31N 35°36' E 139°47'0 0.0
2015-Mar-30 11:28N 35°36' E 139°47'0 0.0
2015-Mar-30 10:31N 35°36' E 139°47'0 0.0
2015-Mar-30 09:31N 35°36' E 139°47'0 0.0
2015-Mar-30 08:31N 35°36' E 139°47'0 0.0
2015-Mar-30 07:31N 35°36' E 139°47'0 0.0
2015-Mar-30 06:31N 35°36' E 139°47'0 0.0
2015-Mar-30 05:31N 35°36' E 139°47'0 0.0
2015-Mar-30 04:28N 35°36' E 139°47'0 0.1
2015-Mar-30 03:31N 35°36' E 139°47'8 8.7
2015-Mar-30 02:33N 35°29' E 139°52'1313.1
2015-Mar-30 01:34N 35°17' E 139°45'1010.1
2015-Mar-30 00:33N 35°07' E 139°46'1313.3
2015-Mar-29 23:33N 34°58' E 139°34'1211.5
2015-Mar-29 22:31N 34°51' E 139°22'  
2015-Mar-26 20:27N 24°34' E 119°21'1516.5
2015-Mar-26 19:33N 24°25' E 119°08'1916.4
2015-Mar-26 18:24N 24°14' E 118°51'14417.4
2015-Mar-26 10:08N 22°47' E 116°45'13217.4
2015-Mar-26 02:32N 22°08' E 114°29'1712.7
2015-Mar-26 01:09N 22°12' E 114°11'610.8
2015-Mar-26 00:33N 22°17' E 114°06'4 3.0
2015-Mar-25 23:13N 22°21' E 114°07'0 0.0
2015-Mar-25 22:25N 22°21' E 114°07'0 0.0
2015-Mar-25 21:31N 22°21' E 114°07'0 0.0
2015-Mar-25 20:31N 22°21' E 114°07'0 0.0
2015-Mar-25 19:31N 22°21' E 114°07'0 0.0
2015-Mar-25 18:31N 22°21' E 114°07'0 0.0
2015-Mar-25 17:31N 22°21' E 114°07'0 0.0
2015-Mar-25 16:19N 22°21' E 114°07'0 0.0
2015-Mar-25 15:31N 22°21' E 114°07'0 0.0
2015-Mar-25 14:25N 22°21' E 114°07'0 0.0
2015-Mar-25 13:31N 22°21' E 114°07'0 0.0
2015-Mar-25 12:31N 22°21' E 114°07'0 0.0
2015-Mar-25 11:31N 22°21' E 114°07'1 0.7
2015-Mar-25 10:33N 22°20' E 114°07'4 3.7
2015-Mar-25 09:33N 22°17' E 114°05'0 0.0
2015-Mar-25 08:33N 22°17' E 114°05'0 0.0
2015-Mar-25 07:33N 22°17' E 114°05'0 0.2
2015-Mar-25 06:33N 22°17' E 114°05'15 2.5
2015-Mar-25 00:33N 22°27' E 113°54'0 0.0
2015-Mar-24 23:33N 22°27' E 113°54'0 0.0
2015-Mar-24 22:33N 22°27' E 113°54'0 0.0
2015-Mar-24 21:33N 22°27' E 113°54'0 0.0
2015-Mar-24 20:33N 22°27' E 113°54'0 0.0
2015-Mar-24 19:33N 22°27' E 113°54'0 0.0
2015-Mar-24 18:27N 22°27' E 113°54'0 0.0
2015-Mar-24 17:33N 22°27' E 113°54'2 2.1
2015-Mar-24 16:33N 22°25' E 113°53'9 8.9
2015-Mar-24 15:30N 22°21' E 114°02'1110.0
2015-Mar-24 14:25N 22°13' E 114°10'8 8.1
2015-Mar-24 13:27N 22°09' E 114°17'6 7.0
2015-Mar-24 12:33N 22°06' E 114°24'  
Track history (hours):
 
Tides and Currents Weather Stations Pressure Air Temp Water Temp Dewpoint Dewpoint Depression Visibility Wind Speed Wind Dir Waves Ship Positions

OOCL Nagoya

Last reported at 2015-Apr-02 02:30 UTC. Time now 2015-Apr-02 03:14 UTC.
Position N 34°39' E 135°15'.

Length 261 m; draft 9.9 m.

Type: Cargo ship. MMSI: 477627900.

Date/timePositionNaut miles runAvg speedWind from/ knotsBaromVisibWave heightAir tempDewpointWater temp
2015-Apr-02 02:30N 34°39' E 135°15'0 0.0
2015-Apr-02 01:30N 34°39' E 135°15'0 0.0
2015-Apr-02 00:18N 34°39' E 135°15'0 0.0
2015-Apr-01 23:30N 34°39' E 135°15'0 0.1
2015-Apr-01 22:33N 34°39' E 135°15'6 6.2
2015-Apr-01 21:33N 34°33' E 135°14'1716.8
2015-Apr-01 20:34N 34°20' E 135°02'1312.9
2015-Apr-01 19:34N 34°07' E 134°59'1515.1
2015-Apr-01 18:33N 33°52' E 134°58'228 5.2
2015-Mar-30 22:32N 34°53' E 139°24'1818.8
2015-Mar-30 21:33N 35°03' E 139°43'1514.6
2015-Mar-30 20:33N 35°17' E 139°45'1312.6
2015-Mar-30 19:34N 35°29' E 139°51'8 7.5
2015-Mar-30 18:31N 35°36' E 139°47'0 0.0
2015-Mar-30 17:31N 35°36' E 139°47'0 0.0
2015-Mar-30 16:31N 35°36' E 139°47'0 0.0
2015-Mar-30 15:31N 35°36' E 139°47'0 0.0
2015-Mar-30 14:31N 35°36' E 139°47'0 0.0
2015-Mar-30 13:28N 35°36' E 139°47'0 0.0
2015-Mar-30 12:31N 35°36' E 139°47'0 0.0
2015-Mar-30 11:28N 35°36' E 139°47'0 0.0
2015-Mar-30 10:31N 35°36' E 139°47'0 0.0
2015-Mar-30 09:31N 35°36' E 139°47'0 0.0
2015-Mar-30 08:31N 35°36' E 139°47'0 0.0
2015-Mar-30 07:31N 35°36' E 139°47'0 0.0
2015-Mar-30 06:31N 35°36' E 139°47'0 0.0
2015-Mar-30 05:31N 35°36' E 139°47'0 0.0
2015-Mar-30 04:28N 35°36' E 139°47'0 0.1
2015-Mar-30 03:31N 35°36' E 139°47'8 8.7
2015-Mar-30 02:33N 35°29' E 139°52'1313.1
2015-Mar-30 01:34N 35°17' E 139°45'1010.1
2015-Mar-30 00:33N 35°07' E 139°46'1313.3
2015-Mar-29 23:33N 34°58' E 139°34'1211.5
2015-Mar-29 22:31N 34°51' E 139°22'  
2015-Mar-26 20:27N 24°34' E 119°21'1516.5
2015-Mar-26 19:33N 24°25' E 119°08'1916.4
2015-Mar-26 18:24N 24°14' E 118°51'14417.4
2015-Mar-26 10:08N 22°47' E 116°45'13217.4
2015-Mar-26 02:32N 22°08' E 114°29'1712.7
2015-Mar-26 01:09N 22°12' E 114°11'610.8
2015-Mar-26 00:33N 22°17' E 114°06'4 3.0
2015-Mar-25 23:13N 22°21' E 114°07'0 0.0
2015-Mar-25 22:25N 22°21' E 114°07'0 0.0
2015-Mar-25 21:31N 22°21' E 114°07'0 0.0
2015-Mar-25 20:31N 22°21' E 114°07'0 0.0
2015-Mar-25 19:31N 22°21' E 114°07'0 0.0
2015-Mar-25 18:31N 22°21' E 114°07'0 0.0
2015-Mar-25 17:31N 22°21' E 114°07'0 0.0
2015-Mar-25 16:19N 22°21' E 114°07'0 0.0
2015-Mar-25 15:31N 22°21' E 114°07'0 0.0
2015-Mar-25 14:25N 22°21' E 114°07'0 0.0
2015-Mar-25 13:31N 22°21' E 114°07'0 0.0
2015-Mar-25 12:31N 22°21' E 114°07'0 0.0
2015-Mar-25 11:31N 22°21' E 114°07'1 0.7
2015-Mar-25 10:33N 22°20' E 114°07'4 3.7
2015-Mar-25 09:33N 22°17' E 114°05'0 0.0
2015-Mar-25 08:33N 22°17' E 114°05'0 0.0
2015-Mar-25 07:33N 22°17' E 114°05'0 0.2
2015-Mar-25 06:33N 22°17' E 114°05'15 2.5
2015-Mar-25 00:33N 22°27' E 113°54'0 0.0
2015-Mar-24 23:33N 22°27' E 113°54'0 0.0
2015-Mar-24 22:33N 22°27' E 113°54'0 0.0
2015-Mar-24 21:33N 22°27' E 113°54'0 0.0
2015-Mar-24 20:33N 22°27' E 113°54'0 0.0
2015-Mar-24 19:33N 22°27' E 113°54'0 0.0
2015-Mar-24 18:27N 22°27' E 113°54'0 0.0
2015-Mar-24 17:33N 22°27' E 113°54'2 2.1
2015-Mar-24 16:33N 22°25' E 113°53'9 8.9
2015-Mar-24 15:30N 22°21' E 114°02'1110.0
2015-Mar-24 14:25N 22°13' E 114°10'8 8.1
2015-Mar-24 13:27N 22°09' E 114°17'6 7.0
2015-Mar-24 12:33N 22°06' E 114°24'  

Dump ship's entire track history